Terminal Aerodrome Forecast
Issued by NWS

Home | Current Version | Previous Version | Graphics & Text | Print | Product List | Glossary On
Versions: 1 2 3 4 5 6 7 8 9 10 11 12 13 14 15 16
000
FTUS43 KGRB 191700
TAFMTW
TAF
KMTW 191736Z 1918/2018 27014G24KT P6SM -SHSN OVC019
      TEMPO 1918/1920 4SM -SHSN BKN019 OVC025
     FM192200 27014G20KT P6SM SCT025 BKN040
     FM200200 27013KT P6SM BKN040
     FM201200 29012KT P6SM BKN035
     FM201600 29014G20KT P6SM SCT035
      TEMPO 2016/2018 BKN035=

USA.gov is the U.S. government's official web portal to all federal, state and local government web resources and services.